sensor_id;sensor_type;location;lat;lon;timestamp;pressure;altitude;pressure_sealevel;temperature;humidity
65131;BME280;51709;54.912;8.316;2023-04-30T00:00:41;102241.28;;;6.70;52.08
65131;BME280;51709;54.912;8.316;2023-04-30T00:06:02;102245.66;;;6.76;51.89
65131;BME280;51709;54.912;8.316;2023-04-30T00:11:22;102249.75;;;6.68;52.11
65131;BME280;51709;54.912;8.316;2023-04-30T00:16:45;102243.69;;;6.62;52.12
65131;BME280;51709;54.912;8.316;2023-04-30T00:22:05;102247.00;;;6.57;52.07
65131;BME280;51709;54.912;8.316;2023-04-30T00:27:26;102253.88;;;6.61;51.93
65131;BME280;51709;54.912;8.316;2023-04-30T00:32:47;102249.00;;;6.73;51.73
65131;BME280;51709;54.912;8.316;2023-04-30T00:38:07;102254.25;;;6.81;51.49
65131;BME280;51709;54.912;8.316;2023-04-30T00:43:28;102254.06;;;6.72;51.61
65131;BME280;51709;54.912;8.316;2023-04-30T00:48:48;102252.25;;;6.65;51.64
65131;BME280;51709;54.912;8.316;2023-04-30T00:54:09;102252.94;;;6.56;51.44
65131;BME280;51709;54.912;8.316;2023-04-30T00:59:30;102267.31;;;6.52;51.60
65131;BME280;51709;54.912;8.316;2023-04-30T01:04:50;102271.44;;;6.45;51.64
65131;BME280;51709;54.912;8.316;2023-04-30T01:10:12;102261.16;;;6.41;51.51
65131;BME280;51709;54.912;8.316;2023-04-30T01:21:29;102267.06;;;6.38;51.37
65131;BME280;51709;54.912;8.316;2023-04-30T01:32:37;102272.03;;;6.32;51.41
65131;BME280;51709;54.912;8.316;2023-04-30T01:38:35;102271.94;;;6.27;51.49
65131;BME280;51709;54.912;8.316;2023-04-30T01:44:01;102263.44;;;6.27;51.33
65131;BME280;51709;54.912;8.316;2023-04-30T02:00:28;102278.75;;;6.27;51.32
65131;BME280;51709;54.912;8.316;2023-04-30T02:05:54;102282.38;;;6.40;50.98
65131;BME280;51709;54.912;8.316;2023-04-30T02:11:14;102280.13;;;6.55;50.90
65131;BME280;51709;54.912;8.316;2023-04-30T02:16:35;102277.84;;;6.69;50.88
65131;BME280;51709;54.912;8.316;2023-04-30T02:21:56;102274.53;;;6.73;51.07
65131;BME280;51709;54.912;8.316;2023-04-30T02:27:17;102282.31;;;6.81;50.96
65131;BME280;51709;54.912;8.316;2023-04-30T02:32:37;102280.69;;;6.86;51.17
65131;BME280;51709;54.912;8.316;2023-04-30T02:37:58;102287.59;;;6.90;51.26
65131;BME280;51709;54.912;8.316;2023-04-30T02:43:18;102296.91;;;6.90;51.58
65131;BME280;51709;54.912;8.316;2023-04-30T02:48:39;102304.56;;;6.88;51.52
65131;BME280;51709;54.912;8.316;2023-04-30T02:54:00;102312.97;;;6.84;51.59
65131;BME280;51709;54.912;8.316;2023-04-30T02:59:21;102310.41;;;6.84;51.84
65131;BME280;51709;54.912;8.316;2023-04-30T03:04:41;102308.69;;;6.83;51.58
65131;BME280;51709;54.912;8.316;2023-04-30T03:10:02;102317.00;;;6.71;51.71
65131;BME280;51709;54.912;8.316;2023-04-30T03:15:23;102324.50;;;6.63;51.80
65131;BME280;51709;54.912;8.316;2023-04-30T03:20:44;102320.22;;;6.61;51.80
65131;BME280;51709;54.912;8.316;2023-04-30T03:26:07;102314.47;;;6.73;51.46
65131;BME280;51709;54.912;8.316;2023-04-30T03:31:28;102303.56;;;6.82;51.47
65131;BME280;51709;54.912;8.316;2023-04-30T03:36:48;102320.72;;;6.89;51.28
65131;BME280;51709;54.912;8.316;2023-04-30T03:42:09;102321.66;;;6.94;51.23
65131;BME280;51709;54.912;8.316;2023-04-30T03:47:30;102326.03;;;7.00;51.24
65131;BME280;51709;54.912;8.316;2023-04-30T03:52:50;102319.25;;;7.02;51.36
65131;BME280;51709;54.912;8.316;2023-04-30T03:58:11;102338.88;;;7.04;51.15
65131;BME280;51709;54.912;8.316;2023-04-30T04:03:33;102339.78;;;7.08;51.19
65131;BME280;51709;54.912;8.316;2023-04-30T04:08:54;102344.13;;;7.14;51.17
65131;BME280;51709;54.912;8.316;2023-04-30T04:14:15;102334.78;;;7.14;51.02
65131;BME280;51709;54.912;8.316;2023-04-30T04:19:36;102341.72;;;7.21;50.73
65131;BME280;51709;54.912;8.316;2023-04-30T04:24:57;102343.50;;;7.27;50.86
65131;BME280;51709;54.912;8.316;2023-04-30T04:30:19;102339.28;;;7.29;50.58
65131;BME280;51709;54.912;8.316;2023-04-30T04:35:41;102342.81;;;7.37;50.51
65131;BME280;51709;54.912;8.316;2023-04-30T04:41:02;102355.66;;;7.40;50.55
65131;BME280;51709;54.912;8.316;2023-04-30T04:46:24;102353.13;;;7.42;50.67
65131;BME280;51709;54.912;8.316;2023-04-30T04:51:45;102360.75;;;7.40;50.58
65131;BME280;51709;54.912;8.316;2023-04-30T04:57:06;102363.41;;;7.45;50.33
65131;BME280;51709;54.912;8.316;2023-04-30T05:02:27;102358.34;;;7.48;50.35
65131;BME280;51709;54.912;8.316;2023-04-30T05:07:48;102382.25;;;7.52;49.91
65131;BME280;51709;54.912;8.316;2023-04-30T05:13:11;102384.94;;;7.61;49.61
65131;BME280;51709;54.912;8.316;2023-04-30T05:18:32;102389.00;;;7.48;49.96
65131;BME280;51709;54.912;8.316;2023-04-30T05:23:53;102391.63;;;7.51;49.93
65131;BME280;51709;54.912;8.316;2023-04-30T05:29:13;102392.91;;;7.80;49.05
65131;BME280;51709;54.912;8.316;2023-04-30T05:34:33;102399.47;;;8.21;48.27
65131;BME280;51709;54.912;8.316;2023-04-30T05:39:54;102391.88;;;8.27;48.10
65131;BME280;51709;54.912;8.316;2023-04-30T05:45:15;102404.56;;;8.19;48.44
65131;BME280;51709;54.912;8.316;2023-04-30T05:50:36;102401.94;;;8.14;48.50
65131;BME280;51709;54.912;8.316;2023-04-30T05:55:57;102407.88;;;8.13;48.52
65131;BME280;51709;54.912;8.316;2023-04-30T06:01:20;102407.19;;;8.24;48.31
65131;BME280;51709;54.912;8.316;2023-04-30T06:06:42;102421.19;;;8.47;47.90
65131;BME280;51709;54.912;8.316;2023-04-30T06:12:03;102421.47;;;8.69;47.29
65131;BME280;51709;54.912;8.316;2023-04-30T06:17:24;102417.28;;;8.76;47.48
65131;BME280;51709;54.912;8.316;2023-04-30T06:22:44;102447.47;;;9.05;47.02
65131;BME280;51709;54.912;8.316;2023-04-30T06:28:04;102431.13;;;8.93;47.34
65131;BME280;51709;54.912;8.316;2023-04-30T06:33:27;102431.09;;;8.89;47.45
65131;BME280;51709;54.912;8.316;2023-04-30T06:38:47;102429.41;;;8.92;47.60
65131;BME280;51709;54.912;8.316;2023-04-30T06:44:08;102435.31;;;8.85;47.78
65131;BME280;51709;54.912;8.316;2023-04-30T06:49:30;102439.41;;;8.71;47.61
65131;BME280;51709;54.912;8.316;2023-04-30T06:54:51;102440.75;;;8.45;48.18
65131;BME280;51709;54.912;8.316;2023-04-30T07:00:37;102437.13;;;8.31;48.10
65131;BME280;51709;54.912;8.316;2023-04-30T07:05:58;102440.03;;;8.53;47.59
65131;BME280;51709;54.912;8.316;2023-04-30T07:11:19;102443.75;;;8.76;46.93
65131;BME280;51709;54.912;8.316;2023-04-30T07:16:39;102441.16;;;8.75;47.06
65131;BME280;51709;54.912;8.316;2023-04-30T07:22:00;102449.13;;;8.98;46.62
65131;BME280;51709;54.912;8.316;2023-04-30T07:27:20;102449.94;;;8.96;46.47
65131;BME280;51709;54.912;8.316;2023-04-30T07:32:41;102456.72;;;8.92;46.67
65131;BME280;51709;54.912;8.316;2023-04-30T07:38:02;102456.09;;;9.10;46.31
65131;BME280;51709;54.912;8.316;2023-04-30T07:43:23;102459.50;;;9.09;46.24
65131;BME280;51709;54.912;8.316;2023-04-30T07:48:44;102460.28;;;9.06;46.41
65131;BME280;51709;54.912;8.316;2023-04-30T07:54:05;102467.59;;;9.49;45.45
65131;BME280;51709;54.912;8.316;2023-04-30T07:59:26;102474.66;;;9.75;44.89
65131;BME280;51709;54.912;8.316;2023-04-30T08:04:46;102456.59;;;9.63;45.23
65131;BME280;51709;54.912;8.316;2023-04-30T08:10:07;102458.41;;;9.71;45.15
65131;BME280;51709;54.912;8.316;2023-04-30T08:15:27;102472.97;;;9.77;45.15
65131;BME280;51709;54.912;8.316;2023-04-30T08:20:50;102483.41;;;10.00;44.72
65131;BME280;51709;54.912;8.316;2023-04-30T08:26:10;102485.25;;;10.15;44.58
65131;BME280;51709;54.912;8.316;2023-04-30T08:31:31;102491.03;;;9.91;45.06
65131;BME280;51709;54.912;8.316;2023-04-30T08:36:52;102494.72;;;10.27;44.52
65131;BME280;51709;54.912;8.316;2023-04-30T08:42:14;102501.63;;;10.31;44.47
65131;BME280;51709;54.912;8.316;2023-04-30T08:47:36;102500.75;;;10.29;44.56
65131;BME280;51709;54.912;8.316;2023-04-30T08:52:58;102507.00;;;10.70;43.81
65131;BME280;51709;54.912;8.316;2023-04-30T08:58:19;102507.16;;;11.00;43.48
65131;BME280;51709;54.912;8.316;2023-04-30T09:03:40;102505.44;;;10.99;43.58
65131;BME280;51709;54.912;8.316;2023-04-30T09:09:12;102500.25;;;10.91;44.05
65131;BME280;51709;54.912;8.316;2023-04-30T09:14:33;102504.50;;;10.83;44.33
65131;BME280;51709;54.912;8.316;2023-04-30T09:20:09;102503.81;;;11.30;43.26
65131;BME280;51709;54.912;8.316;2023-04-30T09:25:38;102498.59;;;11.01;43.69
65131;BME280;51709;54.912;8.316;2023-04-30T09:30:59;102519.19;;;11.15;43.65
65131;BME280;51709;54.912;8.316;2023-04-30T09:36:20;102516.66;;;11.21;43.46
65131;BME280;51709;54.912;8.316;2023-04-30T09:41:41;102510.63;;;11.14;43.52
65131;BME280;51709;54.912;8.316;2023-04-30T09:47:01;102511.53;;;11.36;43.12
65131;BME280;51709;54.912;8.316;2023-04-30T09:52:22;102509.03;;;11.60;42.65
65131;BME280;51709;54.912;8.316;2023-04-30T09:57:43;102517.66;;;11.96;42.05
65131;BME280;51709;54.912;8.316;2023-04-30T10:03:12;102506.50;;;12.03;42.03
65131;BME280;51709;54.912;8.316;2023-04-30T10:08:38;102494.50;;;12.25;41.75
65131;BME280;51709;54.912;8.316;2023-04-30T10:14:09;102492.66;;;12.75;41.02
65131;BME280;51709;54.912;8.316;2023-04-30T10:19:33;102494.31;;;12.89;40.64
65131;BME280;51709;54.912;8.316;2023-04-30T10:24:55;102492.56;;;12.99;40.60
65131;BME280;51709;54.912;8.316;2023-04-30T10:30:17;102488.78;;;13.59;39.67
65131;BME280;51709;54.912;8.316;2023-04-30T10:35:56;102481.34;;;14.27;38.56
65131;BME280;51709;54.912;8.316;2023-04-30T10:41:19;102482.16;;;15.06;37.75
65131;BME280;51709;54.912;8.316;2023-04-30T10:46:39;102483.88;;;15.66;36.95
65131;BME280;51709;54.912;8.316;2023-04-30T10:52:02;102481.84;;;22.82;26.79
65131;BME280;51709;54.912;8.316;2023-04-30T10:57:22;102498.88;;;31.99;17.81
65131;BME280;51709;54.912;8.316;2023-04-30T11:02:45;102487.97;;;36.64;14.43
65131;BME280;51709;54.912;8.316;2023-04-30T11:08:10;102485.47;;;31.70;19.18
65131;BME280;51709;54.912;8.316;2023-04-30T11:13:40;102482.88;;;25.64;26.00
65131;BME280;51709;54.912;8.316;2023-04-30T11:19:09;102473.28;;;22.78;29.68
65131;BME280;51709;54.912;8.316;2023-04-30T11:24:50;102464.13;;;22.30;29.92
65131;BME280;51709;54.912;8.316;2023-04-30T11:30:16;102462.25;;;27.67;22.71
65131;BME280;51709;54.912;8.316;2023-04-30T11:35:37;102469.72;;;30.49;19.52
65131;BME280;51709;54.912;8.316;2023-04-30T11:41:02;102458.28;;;25.35;25.40
65131;BME280;51709;54.912;8.316;2023-04-30T11:46:23;102459.63;;;22.91;28.05
65131;BME280;51709;54.912;8.316;2023-04-30T11:51:47;102457.78;;;22.16;28.38
65131;BME280;51709;54.912;8.316;2023-04-30T11:57:08;102453.22;;;21.17;29.46
65131;BME280;51709;54.912;8.316;2023-04-30T12:02:29;102456.97;;;19.91;30.55
65131;BME280;51709;54.912;8.316;2023-04-30T12:13:13;102440.25;;;22.95;25.53
65131;BME280;51709;54.912;8.316;2023-04-30T12:18:33;102449.81;;;30.22;18.55
65131;BME280;51709;54.912;8.316;2023-04-30T12:23:54;102452.53;;;34.98;15.04
65131;BME280;51709;54.912;8.316;2023-04-30T12:29:17;102452.03;;;36.83;13.86
65131;BME280;51709;54.912;8.316;2023-04-30T12:34:38;102456.88;;;38.78;12.78
65131;BME280;51709;54.912;8.316;2023-04-30T12:39:59;102453.06;;;35.55;14.98
65131;BME280;51709;54.912;8.316;2023-04-30T12:45:48;102429.38;;;27.33;22.59
65131;BME280;51709;54.912;8.316;2023-04-30T12:51:11;102450.88;;;23.46;26.31
65131;BME280;51709;54.912;8.316;2023-04-30T12:56:32;102446.75;;;21.68;28.12
65131;BME280;51709;54.912;8.316;2023-04-30T13:01:52;102451.63;;;21.13;28.02
65131;BME280;51709;54.912;8.316;2023-04-30T13:07:13;102444.19;;;20.08;28.39
65131;BME280;51709;54.912;8.316;2023-04-30T13:12:34;102448.63;;;18.99;29.28
65131;BME280;51709;54.912;8.316;2023-04-30T13:17:55;102434.56;;;18.46;29.70
65131;BME280;51709;54.912;8.316;2023-04-30T13:23:15;102441.16;;;17.93;29.87
65131;BME280;51709;54.912;8.316;2023-04-30T13:28:36;102430.31;;;17.05;30.83
65131;BME280;51709;54.912;8.316;2023-04-30T13:33:56;102432.59;;;17.19;30.66
65131;BME280;51709;54.912;8.316;2023-04-30T13:39:17;102425.22;;;18.07;29.86
65131;BME280;51709;54.912;8.316;2023-04-30T13:44:38;102433.41;;;19.67;28.13
65131;BME280;51709;54.912;8.316;2023-04-30T13:50:00;102433.81;;;29.67;17.77
65131;BME280;51709;54.912;8.316;2023-04-30T13:55:21;102445.88;;;40.15;10.82
65131;BME280;51709;54.912;8.316;2023-04-30T14:00:42;102449.38;;;42.60;9.83
65131;BME280;51709;54.912;8.316;2023-04-30T14:06:03;102437.88;;;43.70;9.50
65131;BME280;51709;54.912;8.316;2023-04-30T14:11:25;102421.56;;;44.16;9.42
65131;BME280;51709;54.912;8.316;2023-04-30T14:16:46;102437.19;;;44.14;9.27
65131;BME280;51709;54.912;8.316;2023-04-30T14:22:07;102429.34;;;44.06;9.56
65131;BME280;51709;54.912;8.316;2023-04-30T14:27:28;102427.44;;;41.12;10.84
65131;BME280;51709;54.912;8.316;2023-04-30T14:32:48;102416.50;;;38.10;12.43
65131;BME280;51709;54.912;8.316;2023-04-30T14:38:09;102400.47;;;33.76;14.88
65131;BME280;51709;54.912;8.316;2023-04-30T14:43:30;102389.06;;;29.52;17.99
65131;BME280;51709;54.912;8.316;2023-04-30T14:48:50;102375.91;;;27.31;19.82
65131;BME280;51709;54.912;8.316;2023-04-30T14:54:11;102369.00;;;24.88;21.87
65131;BME280;51709;54.912;8.316;2023-04-30T14:59:32;102374.63;;;24.66;21.90
65131;BME280;51709;54.912;8.316;2023-04-30T15:04:53;102371.66;;;26.62;19.13
65131;BME280;51709;54.912;8.316;2023-04-30T15:10:16;102366.25;;;23.62;22.22
65131;BME280;51709;54.912;8.316;2023-04-30T15:15:36;102377.25;;;28.14;17.71
65131;BME280;51709;54.912;8.316;2023-04-30T15:20:58;102360.84;;;27.84;18.19
65131;BME280;51709;54.912;8.316;2023-04-30T15:26:19;102351.09;;;24.49;21.61
65131;BME280;51709;54.912;8.316;2023-04-30T15:31:40;102345.69;;;22.28;24.13
65131;BME280;51709;54.912;8.316;2023-04-30T15:37:00;102332.16;;;22.37;24.09
65131;BME280;51709;54.912;8.316;2023-04-30T15:42:21;102332.03;;;21.83;24.74
65131;BME280;51709;54.912;8.316;2023-04-30T15:47:42;102329.81;;;20.91;25.89
65131;BME280;51709;54.912;8.316;2023-04-30T15:53:03;102314.88;;;19.80;27.57
65131;BME280;51709;54.912;8.316;2023-04-30T15:58:23;102303.94;;;18.66;28.82
65131;BME280;51709;54.912;8.316;2023-04-30T16:03:43;102296.38;;;17.02;31.15
65131;BME280;51709;54.912;8.316;2023-04-30T16:09:04;102291.69;;;16.02;32.42
65131;BME280;51709;54.912;8.316;2023-04-30T16:14:26;102274.38;;;15.59;32.89
65131;BME280;51709;54.912;8.316;2023-04-30T16:19:47;102271.44;;;15.32;33.07
65131;BME280;51709;54.912;8.316;2023-04-30T16:25:08;102266.34;;;15.29;33.08
65131;BME280;51709;54.912;8.316;2023-04-30T16:30:29;102263.13;;;15.14;33.32
65131;BME280;51709;54.912;8.316;2023-04-30T16:35:51;102259.47;;;14.74;34.01
65131;BME280;51709;54.912;8.316;2023-04-30T16:41:13;102264.03;;;14.54;34.52
65131;BME280;51709;54.912;8.316;2023-04-30T16:46:34;102265.69;;;14.59;34.40
65131;BME280;51709;54.912;8.316;2023-04-30T16:51:55;102265.63;;;14.64;34.36
65131;BME280;51709;54.912;8.316;2023-04-30T16:57:16;102259.22;;;14.90;34.02
65131;BME280;51709;54.912;8.316;2023-04-30T17:02:36;102264.63;;;15.28;33.55
65131;BME280;51709;54.912;8.316;2023-04-30T17:07:57;102247.63;;;15.60;33.18
65131;BME280;51709;54.912;8.316;2023-04-30T17:13:18;102254.94;;;15.84;33.00
65131;BME280;51709;54.912;8.316;2023-04-30T17:18:38;102247.22;;;14.84;34.75
65131;BME280;51709;54.912;8.316;2023-04-30T17:23:59;102240.44;;;14.17;35.84
65131;BME280;51709;54.912;8.316;2023-04-30T17:29:19;102236.72;;;13.71;36.67
65131;BME280;51709;54.912;8.316;2023-04-30T17:34:42;102224.03;;;13.53;37.08
65131;BME280;51709;54.912;8.316;2023-04-30T17:40:03;102224.28;;;13.28;37.41
65131;BME280;51709;54.912;8.316;2023-04-30T17:45:25;102227.28;;;12.80;38.14
65131;BME280;51709;54.912;8.316;2023-04-30T17:50:46;102210.31;;;12.53;38.37
65131;BME280;51709;54.912;8.316;2023-04-30T17:56:07;102219.94;;;12.24;38.89
65131;BME280;51709;54.912;8.316;2023-04-30T18:01:29;102216.56;;;12.10;39.05
65131;BME280;51709;54.912;8.316;2023-04-30T18:06:50;102211.47;;;11.94;39.20
65131;BME280;51709;54.912;8.316;2023-04-30T18:12:12;102207.28;;;11.67;39.66
65131;BME280;51709;54.912;8.316;2023-04-30T18:17:32;102194.47;;;11.54;39.87
65131;BME280;51709;54.912;8.316;2023-04-30T18:22:56;102211.72;;;10.98;41.03
65131;BME280;51709;54.912;8.316;2023-04-30T18:28:17;102215.13;;;11.11;40.76
65131;BME280;51709;54.912;8.316;2023-04-30T18:33:38;102204.00;;;10.79;41.38
65131;BME280;51709;54.912;8.316;2023-04-30T18:38:58;102204.00;;;10.67;41.60
65131;BME280;51709;54.912;8.316;2023-04-30T18:44:27;102198.81;;;10.33;42.19
65131;BME280;51709;54.912;8.316;2023-04-30T18:49:48;102197.94;;;10.34;41.64
65131;BME280;51709;54.912;8.316;2023-04-30T18:55:09;102187.63;;;10.05;42.35
65131;BME280;51709;54.912;8.316;2023-04-30T19:00:31;102187.47;;;9.67;43.18
65131;BME280;51709;54.912;8.316;2023-04-30T19:05:53;102180.53;;;9.43;43.54
65131;BME280;51709;54.912;8.316;2023-04-30T19:11:15;102189.84;;;9.29;43.84
65131;BME280;51709;54.912;8.316;2023-04-30T19:16:35;102185.63;;;9.35;43.70
65131;BME280;51709;54.912;8.316;2023-04-30T19:21:56;102186.31;;;9.11;43.98
65131;BME280;51709;54.912;8.316;2023-04-30T19:27:17;102177.66;;;8.95;44.46
65131;BME280;51709;54.912;8.316;2023-04-30T19:32:38;102176.69;;;8.77;44.75
65131;BME280;51709;54.912;8.316;2023-04-30T19:37:58;102173.34;;;8.89;44.74
65131;BME280;51709;54.912;8.316;2023-04-30T19:43:20;102177.41;;;8.66;45.50
65131;BME280;51709;54.912;8.316;2023-04-30T19:48:43;102175.69;;;8.63;45.54
65131;BME280;51709;54.912;8.316;2023-04-30T20:14:47;102168.94;;;7.88;46.08
65131;BME280;51709;54.912;8.316;2023-04-30T20:20:08;102159.72;;;8.01;46.29
65131;BME280;51709;54.912;8.316;2023-04-30T20:25:29;102145.16;;;7.95;46.75
65131;BME280;51709;54.912;8.316;2023-04-30T20:30:50;102139.25;;;7.98;47.11
65131;BME280;51709;54.912;8.316;2023-04-30T20:36:11;102130.66;;;7.93;47.54
65131;BME280;51709;54.912;8.316;2023-04-30T20:41:32;102121.34;;;7.98;47.62
65131;BME280;51709;54.912;8.316;2023-04-30T20:46:52;102118.66;;;7.87;47.94
65131;BME280;51709;54.912;8.316;2023-04-30T20:52:13;102104.13;;;7.83;48.38
65131;BME280;51709;54.912;8.316;2023-04-30T20:57:33;102105.84;;;7.81;48.44
65131;BME280;51709;54.912;8.316;2023-04-30T21:02:54;102097.25;;;7.74;48.73
65131;BME280;51709;54.912;8.316;2023-04-30T21:08:15;102097.19;;;7.69;48.98
65131;BME280;51709;54.912;8.316;2023-04-30T21:13:35;102097.16;;;7.68;49.01
65131;BME280;51709;54.912;8.316;2023-04-30T21:18:55;102088.66;;;7.67;49.45
65131;BME280;51709;54.912;8.316;2023-04-30T21:24:16;102084.34;;;7.63;49.82
65131;BME280;51709;54.912;8.316;2023-04-30T21:29:41;102081.78;;;7.63;50.06
65131;BME280;51709;54.912;8.316;2023-04-30T21:35:02;102076.66;;;7.63;50.21
65131;BME280;51709;54.912;8.316;2023-04-30T21:40:23;102076.63;;;7.60;50.50
65131;BME280;51709;54.912;8.316;2023-04-30T21:45:43;102060.44;;;7.58;50.76
65131;BME280;51709;54.912;8.316;2023-04-30T21:51:11;102058.69;;;7.55;51.16
65131;BME280;51709;54.912;8.316;2023-04-30T21:56:32;102062.13;;;7.59;51.16
65131;BME280;51709;54.912;8.316;2023-04-30T22:01:52;102057.00;;;7.56;51.42
65131;BME280;51709;54.912;8.316;2023-04-30T22:07:13;102049.34;;;7.56;51.68
65131;BME280;51709;54.912;8.316;2023-04-30T22:12:34;102045.03;;;7.53;51.99
65131;BME280;51709;54.912;8.316;2023-04-30T22:17:55;102039.13;;;7.56;52.06
65131;BME280;51709;54.912;8.316;2023-04-30T22:23:16;102027.16;;;7.52;52.37
65131;BME280;51709;54.912;8.316;2023-04-30T22:28:37;102022.00;;;7.46;52.70
65131;BME280;51709;54.912;8.316;2023-04-30T22:33:58;102011.75;;;7.44;52.90
65131;BME280;51709;54.912;8.316;2023-04-30T22:39:19;102009.22;;;7.46;52.96
65131;BME280;51709;54.912;8.316;2023-04-30T22:44:40;102010.94;;;7.50;53.04
65131;BME280;51709;54.912;8.316;2023-04-30T22:50:01;102000.69;;;7.45;53.22
65131;BME280;51709;54.912;8.316;2023-04-30T22:55:22;101992.97;;;7.39;53.50
65131;BME280;51709;54.912;8.316;2023-04-30T23:00:44;101998.03;;;7.34;53.91
65131;BME280;51709;54.912;8.316;2023-04-30T23:06:05;101999.66;;;7.31;54.02
65131;BME280;51709;54.912;8.316;2023-04-30T23:11:25;101990.28;;;7.27;54.31
65131;BME280;51709;54.912;8.316;2023-04-30T23:16:46;101986.00;;;7.25;54.46
65131;BME280;51709;54.912;8.316;2023-04-30T23:22:06;101984.28;;;7.23;54.74
65131;BME280;51709;54.912;8.316;2023-04-30T23:27:27;101979.16;;;7.21;55.26
65131;BME280;51709;54.912;8.316;2023-04-30T23:32:47;101977.47;;;7.23;55.22
65131;BME280;51709;54.912;8.316;2023-04-30T23:38:08;101980.88;;;7.22;55.52
65131;BME280;51709;54.912;8.316;2023-04-30T23:43:29;101982.53;;;7.19;55.91
65131;BME280;51709;54.912;8.316;2023-04-30T23:48:50;101979.09;;;7.18;55.91
65131;BME280;51709;54.912;8.316;2023-04-30T23:54:11;101974.03;;;7.21;56.06
65131;BME280;51709;54.912;8.316;2023-04-30T23:59:31;101965.56;;;7.24;56.34
